sensor_id;sensor_type;location;lat;lon;timestamp;P1;durP1;ratioP1;P2;durP2;ratioP2
12577;SDS011;6354;51.026;8.968;2023-04-19T00:00:02;492.60;;;107.37;;
12577;SDS011;6354;51.026;8.968;2023-04-19T00:02:35;480.03;;;98.93;;
12577;SDS011;6354;51.026;8.968;2023-04-19T00:05:03;316.43;;;86.37;;
12577;SDS011;6354;51.026;8.968;2023-04-19T00:07:32;301.57;;;70.30;;
12577;SDS011;6354;51.026;8.968;2023-04-19T00:10:00;1031.10;;;156.50;;
12577;SDS011;6354;51.026;8.968;2023-04-19T00:12:28;1114.97;;;186.77;;
12577;SDS011;6354;51.026;8.968;2023-04-19T00:14:56;1117.90;;;151.60;;
12577;SDS011;6354;51.026;8.968;2023-04-19T00:17:25;1996.80;;;275.70;;
12577;SDS011;6354;51.026;8.968;2023-04-19T00:19:55;896.37;;;137.83;;
12577;SDS011;6354;51.026;8.968;2023-04-19T00:22:23;727.03;;;145.33;;
12577;SDS011;6354;51.026;8.968;2023-04-19T00:24:52;326.20;;;96.97;;
12577;SDS011;6354;51.026;8.968;2023-04-19T00:27:20;935.23;;;156.67;;
12577;SDS011;6354;51.026;8.968;2023-04-19T00:29:48;178.97;;;67.40;;
12577;SDS011;6354;51.026;8.968;2023-04-19T00:32:16;800.07;;;139.87;;
12577;SDS011;6354;51.026;8.968;2023-04-19T00:34:44;900.27;;;129.27;;
12577;SDS011;6354;51.026;8.968;2023-04-19T00:37:13;1401.93;;;214.13;;
12577;SDS011;6354;51.026;8.968;2023-04-19T00:39:41;1369.13;;;224.93;;
12577;SDS011;6354;51.026;8.968;2023-04-19T00:42:09;1063.67;;;167.83;;
12577;SDS011;6354;51.026;8.968;2023-04-19T00:44:37;1942.53;;;536.33;;
12577;SDS011;6354;51.026;8.968;2023-04-19T00:47:05;1331.93;;;219.40;;
12577;SDS011;6354;51.026;8.968;2023-04-19T00:49:34;546.37;;;88.97;;
12577;SDS011;6354;51.026;8.968;2023-04-19T00:52:02;1336.83;;;176.30;;
12577;SDS011;6354;51.026;8.968;2023-04-19T00:54:32;1190.37;;;209.73;;
12577;SDS011;6354;51.026;8.968;2023-04-19T00:57:01;790.03;;;157.13;;
12577;SDS011;6354;51.026;8.968;2023-04-19T00:59:29;929.60;;;143.07;;
12577;SDS011;6354;51.026;8.968;2023-04-19T01:01:57;1386.40;;;270.33;;
12577;SDS011;6354;51.026;8.968;2023-04-19T01:04:25;1874.07;;;315.20;;
12577;SDS011;6354;51.026;8.968;2023-04-19T01:06:54;804.27;;;153.60;;
12577;SDS011;6354;51.026;8.968;2023-04-19T01:09:22;1641.13;;;205.57;;
12577;SDS011;6354;51.026;8.968;2023-04-19T01:11:52;1034.97;;;187.83;;
12577;SDS011;6354;51.026;8.968;2023-04-19T01:14:20;1576.03;;;262.17;;
12577;SDS011;6354;51.026;8.968;2023-04-19T01:16:48;591.80;;;131.93;;
12577;SDS011;6354;51.026;8.968;2023-04-19T01:19:16;730.97;;;130.40;;
12577;SDS011;6354;51.026;8.968;2023-04-19T01:21:44;1467.47;;;200.13;;
12577;SDS011;6354;51.026;8.968;2023-04-19T01:24:14;598.27;;;101.60;;
12577;SDS011;6354;51.026;8.968;2023-04-19T01:26:42;1999.90;;;322.17;;
12577;SDS011;6354;51.026;8.968;2023-04-19T01:29:10;681.83;;;140.70;;
12577;SDS011;6354;51.026;8.968;2023-04-19T01:31:38;713.80;;;123.93;;
12577;SDS011;6354;51.026;8.968;2023-04-19T01:34:06;650.03;;;130.90;;
12577;SDS011;6354;51.026;8.968;2023-04-19T01:36:34;1665.03;;;258.67;;
12577;SDS011;6354;51.026;8.968;2023-04-19T01:39:02;906.87;;;164.80;;
12577;SDS011;6354;51.026;8.968;2023-04-19T01:41:32;875.87;;;153.17;;
12577;SDS011;6354;51.026;8.968;2023-04-19T01:44:00;1331.93;;;232.30;;
12577;SDS011;6354;51.026;8.968;2023-04-19T01:46:28;1589.50;;;261.43;;
12577;SDS011;6354;51.026;8.968;2023-04-19T01:48:56;1999.90;;;344.47;;
12577;SDS011;6354;51.026;8.968;2023-04-19T01:51:24;829.27;;;128.17;;
12577;SDS011;6354;51.026;8.968;2023-04-19T01:53:53;1999.90;;;568.03;;
12577;SDS011;6354;51.026;8.968;2023-04-19T01:56:21;1210.63;;;186.33;;
12577;SDS011;6354;51.026;8.968;2023-04-19T01:58:50;1344.80;;;217.03;;
12577;SDS011;6354;51.026;8.968;2023-04-19T02:01:18;1999.90;;;367.00;;
12577;SDS011;6354;51.026;8.968;2023-04-19T02:03:46;1999.90;;;526.67;;
12577;SDS011;6354;51.026;8.968;2023-04-19T02:06:15;1616.33;;;274.00;;
12577;SDS011;6354;51.026;8.968;2023-04-19T02:08:42;1379.80;;;214.03;;
12577;SDS011;6354;51.026;8.968;2023-04-19T02:11:11;1171.50;;;256.90;;
12577;SDS011;6354;51.026;8.968;2023-04-19T02:13:40;1533.13;;;308.07;;
12577;SDS011;6354;51.026;8.968;2023-04-19T02:16:10;1184.97;;;202.80;;
12577;SDS011;6354;51.026;8.968;2023-04-19T02:18:38;1681.03;;;294.03;;
12577;SDS011;6354;51.026;8.968;2023-04-19T02:21:07;1759.87;;;303.73;;
12577;SDS011;6354;51.026;8.968;2023-04-19T02:23:36;1999.90;;;461.07;;
12577;SDS011;6354;51.026;8.968;2023-04-19T02:26:04;923.80;;;206.43;;
12577;SDS011;6354;51.026;8.968;2023-04-19T02:28:32;1157.37;;;190.67;;
12577;SDS011;6354;51.026;8.968;2023-04-19T02:31:02;1999.90;;;511.60;;
12577;SDS011;6354;51.026;8.968;2023-04-19T02:33:33;1999.90;;;443.23;;
12577;SDS011;6354;51.026;8.968;2023-04-19T02:36:01;1999.90;;;730.53;;
12577;SDS011;6354;51.026;8.968;2023-04-19T02:38:29;1999.90;;;314.87;;
12577;SDS011;6354;51.026;8.968;2023-04-19T02:40:57;1999.90;;;393.83;;
12577;SDS011;6354;51.026;8.968;2023-04-19T02:43:26;1940.90;;;284.17;;
12577;SDS011;6354;51.026;8.968;2023-04-19T02:45:54;1464.00;;;212.97;;
12577;SDS011;6354;51.026;8.968;2023-04-19T02:48:22;1617.10;;;316.63;;
12577;SDS011;6354;51.026;8.968;2023-04-19T02:50:52;1999.90;;;444.00;;
12577;SDS011;6354;51.026;8.968;2023-04-19T02:53:20;1639.33;;;293.03;;
12577;SDS011;6354;51.026;8.968;2023-04-19T02:55:48;899.63;;;221.23;;
12577;SDS011;6354;51.026;8.968;2023-04-19T02:58:16;1999.90;;;432.67;;
12577;SDS011;6354;51.026;8.968;2023-04-19T03:00:44;1999.90;;;393.47;;
12577;SDS011;6354;51.026;8.968;2023-04-19T03:03:12;1999.90;;;566.30;;
12577;SDS011;6354;51.026;8.968;2023-04-19T03:05:40;1999.90;;;405.97;;
12577;SDS011;6354;51.026;8.968;2023-04-19T03:08:09;1999.90;;;351.47;;
12577;SDS011;6354;51.026;8.968;2023-04-19T03:10:37;1999.90;;;562.87;;
12577;SDS011;6354;51.026;8.968;2023-04-19T03:13:05;1999.90;;;583.23;;
12577;SDS011;6354;51.026;8.968;2023-04-19T03:15:34;643.43;;;162.30;;
12577;SDS011;6354;51.026;8.968;2023-04-19T03:18:02;1999.90;;;471.20;;
12577;SDS011;6354;51.026;8.968;2023-04-19T03:20:30;1890.27;;;364.53;;
12577;SDS011;6354;51.026;8.968;2023-04-19T03:22:59;1999.90;;;773.27;;
12577;SDS011;6354;51.026;8.968;2023-04-19T03:25:28;1164.93;;;225.60;;
12577;SDS011;6354;51.026;8.968;2023-04-19T03:27:57;1999.90;;;829.63;;
12577;SDS011;6354;51.026;8.968;2023-04-19T03:30:25;1836.33;;;305.50;;
12577;SDS011;6354;51.026;8.968;2023-04-19T03:32:53;1561.97;;;276.67;;
12577;SDS011;6354;51.026;8.968;2023-04-19T03:35:21;1999.90;;;623.23;;
12577;SDS011;6354;51.026;8.968;2023-04-19T03:37:51;1093.43;;;194.33;;
12577;SDS011;6354;51.026;8.968;2023-04-19T03:40:19;1236.97;;;205.03;;
12577;SDS011;6354;51.026;8.968;2023-04-19T03:42:49;1999.90;;;710.43;;
12577;SDS011;6354;51.026;8.968;2023-04-19T03:45:17;1369.27;;;256.70;;
12577;SDS011;6354;51.026;8.968;2023-04-19T03:47:45;1999.90;;;444.80;;
12577;SDS011;6354;51.026;8.968;2023-04-19T03:50:13;1390.37;;;261.17;;
12577;SDS011;6354;51.026;8.968;2023-04-19T03:52:41;1999.90;;;697.40;;
12577;SDS011;6354;51.026;8.968;2023-04-19T03:55:09;1999.90;;;459.60;;
12577;SDS011;6354;51.026;8.968;2023-04-19T03:57:39;1160.20;;;238.97;;
12577;SDS011;6354;51.026;8.968;2023-04-19T04:00:09;1999.90;;;630.80;;
12577;SDS011;6354;51.026;8.968;2023-04-19T04:02:38;1999.90;;;491.90;;
12577;SDS011;6354;51.026;8.968;2023-04-19T04:05:06;1999.90;;;391.50;;
12577;SDS011;6354;51.026;8.968;2023-04-19T04:07:35;1999.90;;;900.53;;
12577;SDS011;6354;51.026;8.968;2023-04-19T04:10:03;1999.90;;;429.47;;
12577;SDS011;6354;51.026;8.968;2023-04-19T04:12:32;1999.90;;;799.23;;
12577;SDS011;6354;51.026;8.968;2023-04-19T04:15:00;1999.90;;;352.80;;
12577;SDS011;6354;51.026;8.968;2023-04-19T04:17:29;1233.50;;;321.20;;
12577;SDS011;6354;51.026;8.968;2023-04-19T04:19:58;1999.90;;;568.60;;
12577;SDS011;6354;51.026;8.968;2023-04-19T04:22:26;1999.90;;;430.53;;
12577;SDS011;6354;51.026;8.968;2023-04-19T04:24:54;1999.90;;;594.30;;
12577;SDS011;6354;51.026;8.968;2023-04-19T04:27:23;1332.27;;;338.57;;
12577;SDS011;6354;51.026;8.968;2023-04-19T04:29:51;1297.93;;;242.33;;
12577;SDS011;6354;51.026;8.968;2023-04-19T04:32:19;1999.90;;;847.37;;
12577;SDS011;6354;51.026;8.968;2023-04-19T04:34:50;1999.90;;;754.73;;
12577;SDS011;6354;51.026;8.968;2023-04-19T04:37:18;1999.90;;;635.33;;
12577;SDS011;6354;51.026;8.968;2023-04-19T04:39:46;1999.90;;;845.93;;
12577;SDS011;6354;51.026;8.968;2023-04-19T04:42:14;1999.90;;;999.90;;
12577;SDS011;6354;51.026;8.968;2023-04-19T04:44:42;1999.90;;;999.90;;
12577;SDS011;6354;51.026;8.968;2023-04-19T04:47:12;1999.90;;;680.17;;
12577;SDS011;6354;51.026;8.968;2023-04-19T04:49:40;1702.93;;;385.37;;
12577;SDS011;6354;51.026;8.968;2023-04-19T04:52:09;1999.90;;;589.17;;
12577;SDS011;6354;51.026;8.968;2023-04-19T04:54:38;1999.90;;;481.57;;
12577;SDS011;6354;51.026;8.968;2023-04-19T04:57:07;1999.90;;;878.93;;
12577;SDS011;6354;51.026;8.968;2023-04-19T04:59:35;391.57;;;126.63;;
12577;SDS011;6354;51.026;8.968;2023-04-19T05:02:03;1796.40;;;408.13;;
12577;SDS011;6354;51.026;8.968;2023-04-19T05:04:31;1999.90;;;549.13;;
12577;SDS011;6354;51.026;8.968;2023-04-19T05:06:59;1841.50;;;320.53;;
12577;SDS011;6354;51.026;8.968;2023-04-19T05:09:29;343.27;;;106.83;;
12577;SDS011;6354;51.026;8.968;2023-04-19T05:11:57;1927.67;;;346.20;;
12577;SDS011;6354;51.026;8.968;2023-04-19T05:14:24;1999.90;;;507.60;;
12577;SDS011;6354;51.026;8.968;2023-04-19T05:16:52;1970.93;;;398.70;;
12577;SDS011;6354;51.026;8.968;2023-04-19T05:19:20;1539.00;;;288.97;;
12577;SDS011;6354;51.026;8.968;2023-04-19T05:21:49;1980.03;;;443.63;;
12577;SDS011;6354;51.026;8.968;2023-04-19T05:24:17;1902.73;;;433.60;;
12577;SDS011;6354;51.026;8.968;2023-04-19T05:26:47;1790.33;;;336.50;;
12577;SDS011;6354;51.026;8.968;2023-04-19T05:29:15;1999.90;;;970.03;;
12577;SDS011;6354;51.026;8.968;2023-04-19T05:31:43;1999.90;;;721.17;;
12577;SDS011;6354;51.026;8.968;2023-04-19T05:34:11;1999.90;;;916.57;;
12577;SDS011;6354;51.026;8.968;2023-04-19T05:36:40;1999.90;;;843.60;;
12577;SDS011;6354;51.026;8.968;2023-04-19T05:39:08;1999.90;;;843.97;;
12577;SDS011;6354;51.026;8.968;2023-04-19T05:41:36;1927.20;;;482.60;;
12577;SDS011;6354;51.026;8.968;2023-04-19T05:44:05;809.57;;;286.03;;
12577;SDS011;6354;51.026;8.968;2023-04-19T05:46:33;1999.90;;;673.73;;
12577;SDS011;6354;51.026;8.968;2023-04-19T05:49:02;1999.90;;;499.73;;
12577;SDS011;6354;51.026;8.968;2023-04-19T05:51:30;1999.90;;;987.73;;
12577;SDS011;6354;51.026;8.968;2023-04-19T05:53:58;1999.90;;;511.60;;
12577;SDS011;6354;51.026;8.968;2023-04-19T05:56:27;1999.90;;;838.20;;
12577;SDS011;6354;51.026;8.968;2023-04-19T05:58:55;1999.90;;;519.10;;
12577;SDS011;6354;51.026;8.968;2023-04-19T06:01:24;1999.90;;;724.83;;
12577;SDS011;6354;51.026;8.968;2023-04-19T06:03:53;1999.90;;;787.13;;
12577;SDS011;6354;51.026;8.968;2023-04-19T06:06:21;1999.90;;;643.07;;
12577;SDS011;6354;51.026;8.968;2023-04-19T06:08:50;1999.90;;;858.20;;
12577;SDS011;6354;51.026;8.968;2023-04-19T06:11:20;1999.90;;;706.53;;
12577;SDS011;6354;51.026;8.968;2023-04-19T06:14:00;1999.90;;;771.57;;
12577;SDS011;6354;51.026;8.968;2023-04-19T06:16:29;1999.90;;;993.53;;
12577;SDS011;6354;51.026;8.968;2023-04-19T06:18:57;1999.90;;;980.90;;
12577;SDS011;6354;51.026;8.968;2023-04-19T06:21:25;1999.90;;;995.87;;
12577;SDS011;6354;51.026;8.968;2023-04-19T06:23:56;1999.90;;;918.93;;
12577;SDS011;6354;51.026;8.968;2023-04-19T06:26:24;1999.90;;;999.90;;
12577;SDS011;6354;51.026;8.968;2023-04-19T06:28:52;1999.90;;;999.90;;
12577;SDS011;6354;51.026;8.968;2023-04-19T06:31:20;1999.90;;;999.90;;
12577;SDS011;6354;51.026;8.968;2023-04-19T06:33:49;1999.90;;;999.90;;
12577;SDS011;6354;51.026;8.968;2023-04-19T06:36:17;1999.90;;;999.90;;
12577;SDS011;6354;51.026;8.968;2023-04-19T06:38:46;1999.90;;;999.90;;
12577;SDS011;6354;51.026;8.968;2023-04-19T06:41:15;1999.90;;;968.43;;
12577;SDS011;6354;51.026;8.968;2023-04-19T06:43:43;1999.90;;;933.23;;
12577;SDS011;6354;51.026;8.968;2023-04-19T06:46:11;1999.90;;;999.90;;
12577;SDS011;6354;51.026;8.968;2023-04-19T06:48:41;1999.90;;;999.90;;
12577;SDS011;6354;51.026;8.968;2023-04-19T06:51:12;1999.90;;;999.90;;
12577;SDS011;6354;51.026;8.968;2023-04-19T06:53:41;1999.90;;;999.90;;
12577;SDS011;6354;51.026;8.968;2023-04-19T06:56:09;1999.90;;;999.90;;
12577;SDS011;6354;51.026;8.968;2023-04-19T06:58:38;1999.90;;;999.90;;
12577;SDS011;6354;51.026;8.968;2023-04-19T07:01:06;1999.90;;;999.90;;
12577;SDS011;6354;51.026;8.968;2023-04-19T07:03:34;1999.90;;;999.90;;
12577;SDS011;6354;51.026;8.968;2023-04-19T07:06:03;1999.90;;;999.90;;
12577;SDS011;6354;51.026;8.968;2023-04-19T07:08:33;1999.90;;;999.90;;
12577;SDS011;6354;51.026;8.968;2023-04-19T07:11:15;1999.90;;;999.90;;
12577;SDS011;6354;51.026;8.968;2023-04-19T07:13:45;1999.90;;;999.90;;
12577;SDS011;6354;51.026;8.968;2023-04-19T07:16:13;1999.90;;;999.90;;
12577;SDS011;6354;51.026;8.968;2023-04-19T07:18:42;1999.90;;;999.90;;
12577;SDS011;6354;51.026;8.968;2023-04-19T07:21:10;1999.90;;;999.90;;
12577;SDS011;6354;51.026;8.968;2023-04-19T07:23:40;1999.90;;;999.90;;
12577;SDS011;6354;51.026;8.968;2023-04-19T07:26:08;1999.90;;;999.90;;
12577;SDS011;6354;51.026;8.968;2023-04-19T07:28:37;1999.90;;;938.57;;
12577;SDS011;6354;51.026;8.968;2023-04-19T07:31:06;1999.90;;;999.90;;
12577;SDS011;6354;51.026;8.968;2023-04-19T07:33:34;1999.90;;;999.90;;
12577;SDS011;6354;51.026;8.968;2023-04-19T07:36:02;1999.90;;;999.90;;
12577;SDS011;6354;51.026;8.968;2023-04-19T07:38:31;1999.90;;;999.90;;
12577;SDS011;6354;51.026;8.968;2023-04-19T07:41:01;1999.90;;;999.90;;
12577;SDS011;6354;51.026;8.968;2023-04-19T07:43:30;1999.90;;;999.90;;
12577;SDS011;6354;51.026;8.968;2023-04-19T07:45:58;1999.90;;;999.90;;
12577;SDS011;6354;51.026;8.968;2023-04-19T07:48:26;1999.90;;;999.90;;
12577;SDS011;6354;51.026;8.968;2023-04-19T07:50:54;1999.90;;;999.90;;
12577;SDS011;6354;51.026;8.968;2023-04-19T07:53:22;1999.90;;;999.90;;
12577;SDS011;6354;51.026;8.968;2023-04-19T07:55:51;1999.90;;;999.90;;
12577;SDS011;6354;51.026;8.968;2023-04-19T07:58:20;1999.90;;;999.90;;
12577;SDS011;6354;51.026;8.968;2023-04-19T08:00:48;1999.90;;;999.90;;
12577;SDS011;6354;51.026;8.968;2023-04-19T08:03:16;1999.90;;;999.90;;
12577;SDS011;6354;51.026;8.968;2023-04-19T08:05:44;1999.90;;;999.90;;
12577;SDS011;6354;51.026;8.968;2023-04-19T08:08:12;1999.90;;;999.90;;
12577;SDS011;6354;51.026;8.968;2023-04-19T08:10:40;1999.90;;;999.90;;
12577;SDS011;6354;51.026;8.968;2023-04-19T08:13:08;1999.90;;;999.90;;
12577;SDS011;6354;51.026;8.968;2023-04-19T08:15:38;1999.90;;;999.90;;
12577;SDS011;6354;51.026;8.968;2023-04-19T08:18:09;1999.90;;;999.90;;
12577;SDS011;6354;51.026;8.968;2023-04-19T08:20:37;1999.90;;;999.90;;
12577;SDS011;6354;51.026;8.968;2023-04-19T08:23:07;1999.90;;;999.90;;
12577;SDS011;6354;51.026;8.968;2023-04-19T08:25:51;1999.90;;;999.90;;
12577;SDS011;6354;51.026;8.968;2023-04-19T08:28:19;1999.90;;;999.90;;
12577;SDS011;6354;51.026;8.968;2023-04-19T08:30:48;1999.90;;;999.20;;
12577;SDS011;6354;51.026;8.968;2023-04-19T08:33:16;1999.90;;;999.90;;
12577;SDS011;6354;51.026;8.968;2023-04-19T08:35:44;1999.90;;;999.90;;
12577;SDS011;6354;51.026;8.968;2023-04-19T08:38:12;1999.90;;;999.90;;
12577;SDS011;6354;51.026;8.968;2023-04-19T08:40:41;1999.90;;;999.90;;
12577;SDS011;6354;51.026;8.968;2023-04-19T08:43:13;1999.90;;;999.90;;
12577;SDS011;6354;51.026;8.968;2023-04-19T08:45:44;1999.90;;;999.90;;
12577;SDS011;6354;51.026;8.968;2023-04-19T08:48:15;1999.90;;;999.90;;
12577;SDS011;6354;51.026;8.968;2023-04-19T08:50:43;1999.90;;;999.90;;
12577;SDS011;6354;51.026;8.968;2023-04-19T08:53:32;1999.90;;;999.90;;
12577;SDS011;6354;51.026;8.968;2023-04-19T08:56:00;1999.90;;;999.90;;
12577;SDS011;6354;51.026;8.968;2023-04-19T08:58:46;1999.90;;;999.90;;
12577;SDS011;6354;51.026;8.968;2023-04-19T09:01:17;1999.90;;;999.90;;
12577;SDS011;6354;51.026;8.968;2023-04-19T09:04:00;1999.90;;;999.90;;
12577;SDS011;6354;51.026;8.968;2023-04-19T09:06:48;1999.90;;;999.90;;
12577;SDS011;6354;51.026;8.968;2023-04-19T09:09:16;1999.90;;;999.90;;
12577;SDS011;6354;51.026;8.968;2023-04-19T09:12:02;1999.90;;;999.90;;
12577;SDS011;6354;51.026;8.968;2023-04-19T09:14:42;1999.90;;;999.90;;
12577;SDS011;6354;51.026;8.968;2023-04-19T09:17:26;1999.90;;;999.90;;
12577;SDS011;6354;51.026;8.968;2023-04-19T09:19:55;1999.90;;;999.90;;
12577;SDS011;6354;51.026;8.968;2023-04-19T09:22:24;1999.90;;;999.90;;
12577;SDS011;6354;51.026;8.968;2023-04-19T09:24:52;1999.90;;;999.90;;
12577;SDS011;6354;51.026;8.968;2023-04-19T09:27:26;1999.90;;;999.90;;
12577;SDS011;6354;51.026;8.968;2023-04-19T09:29:55;1999.90;;;999.90;;
12577;SDS011;6354;51.026;8.968;2023-04-19T09:32:25;1999.90;;;999.90;;
12577;SDS011;6354;51.026;8.968;2023-04-19T09:34:57;1999.90;;;999.90;;
12577;SDS011;6354;51.026;8.968;2023-04-19T09:37:25;1999.90;;;999.90;;
12577;SDS011;6354;51.026;8.968;2023-04-19T09:39:56;1999.90;;;999.90;;
12577;SDS011;6354;51.026;8.968;2023-04-19T09:42:26;1999.90;;;999.90;;
12577;SDS011;6354;51.026;8.968;2023-04-19T09:45:14;1999.90;;;999.90;;
12577;SDS011;6354;51.026;8.968;2023-04-19T09:47:50;1999.90;;;999.90;;
12577;SDS011;6354;51.026;8.968;2023-04-19T09:50:28;1999.90;;;999.90;;
12577;SDS011;6354;51.026;8.968;2023-04-19T09:52:59;1999.90;;;999.90;;
12577;SDS011;6354;51.026;8.968;2023-04-19T09:55:28;1999.90;;;999.90;;
12577;SDS011;6354;51.026;8.968;2023-04-19T09:58:14;1999.90;;;999.90;;
12577;SDS011;6354;51.026;8.968;2023-04-19T10:00:42;1999.90;;;999.90;;
12577;SDS011;6354;51.026;8.968;2023-04-19T10:03:18;1999.90;;;999.90;;
12577;SDS011;6354;51.026;8.968;2023-04-19T10:05:48;1999.90;;;999.90;;
12577;SDS011;6354;51.026;8.968;2023-04-19T10:08:17;1999.90;;;999.90;;
12577;SDS011;6354;51.026;8.968;2023-04-19T10:10:46;1999.90;;;999.90;;
12577;SDS011;6354;51.026;8.968;2023-04-19T10:13:20;1999.90;;;999.90;;
12577;SDS011;6354;51.026;8.968;2023-04-19T10:15:52;1999.90;;;999.90;;
12577;SDS011;6354;51.026;8.968;2023-04-19T10:18:37;1999.90;;;999.90;;
12577;SDS011;6354;51.026;8.968;2023-04-19T10:21:06;1999.90;;;999.90;;
12577;SDS011;6354;51.026;8.968;2023-04-19T10:23:37;1999.90;;;999.90;;
12577;SDS011;6354;51.026;8.968;2023-04-19T10:26:05;1999.90;;;999.90;;
12577;SDS011;6354;51.026;8.968;2023-04-19T10:28:34;1999.90;;;999.90;;
12577;SDS011;6354;51.026;8.968;2023-04-19T10:31:03;1999.90;;;999.90;;
12577;SDS011;6354;51.026;8.968;2023-04-19T10:33:33;1999.90;;;999.90;;
12577;SDS011;6354;51.026;8.968;2023-04-19T10:36:03;1999.90;;;999.90;;
12577;SDS011;6354;51.026;8.968;2023-04-19T10:38:37;1999.90;;;999.90;;
12577;SDS011;6354;51.026;8.968;2023-04-19T10:41:06;1999.90;;;999.90;;
12577;SDS011;6354;51.026;8.968;2023-04-19T10:43:43;1999.90;;;999.90;;
12577;SDS011;6354;51.026;8.968;2023-04-19T10:46:13;1999.90;;;999.90;;
12577;SDS011;6354;51.026;8.968;2023-04-19T10:48:49;1999.90;;;999.90;;
12577;SDS011;6354;51.026;8.968;2023-04-19T10:51:21;1999.90;;;999.90;;
12577;SDS011;6354;51.026;8.968;2023-04-19T10:53:56;1999.90;;;999.90;;
12577;SDS011;6354;51.026;8.968;2023-04-19T10:59:25;1999.90;;;999.90;;
12577;SDS011;6354;51.026;8.968;2023-04-19T11:01:56;1999.90;;;999.90;;
12577;SDS011;6354;51.026;8.968;2023-04-19T11:07:38;1999.90;;;999.90;;
12577;SDS011;6354;51.026;8.968;2023-04-19T11:10:08;1999.90;;;999.90;;
12577;SDS011;6354;51.026;8.968;2023-04-19T11:12:40;1999.90;;;999.90;;
12577;SDS011;6354;51.026;8.968;2023-04-19T11:15:09;1999.90;;;999.90;;
12577;SDS011;6354;51.026;8.968;2023-04-19T11:17:37;1999.90;;;983.33;;
12577;SDS011;6354;51.026;8.968;2023-04-19T11:20:07;1999.90;;;999.90;;
12577;SDS011;6354;51.026;8.968;2023-04-19T11:22:36;1999.90;;;999.90;;
12577;SDS011;6354;51.026;8.968;2023-04-19T11:25:07;1999.90;;;999.90;;
12577;SDS011;6354;51.026;8.968;2023-04-19T11:27:37;1999.90;;;999.90;;
12577;SDS011;6354;51.026;8.968;2023-04-19T11:30:07;1999.90;;;999.90;;
12577;SDS011;6354;51.026;8.968;2023-04-19T11:32:36;1999.90;;;999.90;;
12577;SDS011;6354;51.026;8.968;2023-04-19T11:35:11;1999.90;;;999.90;;
12577;SDS011;6354;51.026;8.968;2023-04-19T11:37:40;1999.90;;;999.90;;
12577;SDS011;6354;51.026;8.968;2023-04-19T11:40:09;1999.90;;;999.90;;
12577;SDS011;6354;51.026;8.968;2023-04-19T11:42:42;1999.90;;;999.90;;
12577;SDS011;6354;51.026;8.968;2023-04-19T11:45:10;1999.90;;;999.90;;
12577;SDS011;6354;51.026;8.968;2023-04-19T11:47:54;1999.90;;;999.90;;
12577;SDS011;6354;51.026;8.968;2023-04-19T11:50:29;1999.90;;;999.90;;
12577;SDS011;6354;51.026;8.968;2023-04-19T11:53:13;1999.90;;;999.90;;
12577;SDS011;6354;51.026;8.968;2023-04-19T11:55:42;1999.90;;;999.90;;
12577;SDS011;6354;51.026;8.968;2023-04-19T12:01:01;1999.90;;;999.90;;
12577;SDS011;6354;51.026;8.968;2023-04-19T12:03:32;1999.90;;;999.90;;
12577;SDS011;6354;51.026;8.968;2023-04-19T12:06:01;1999.90;;;999.90;;
12577;SDS011;6354;51.026;8.968;2023-04-19T12:08:32;1999.90;;;999.90;;
12577;SDS011;6354;51.026;8.968;2023-04-19T12:11:01;1999.90;;;999.90;;
12577;SDS011;6354;51.026;8.968;2023-04-19T12:13:31;1999.90;;;999.90;;
12577;SDS011;6354;51.026;8.968;2023-04-19T12:15:59;1999.90;;;999.90;;
12577;SDS011;6354;51.026;8.968;2023-04-19T12:18:28;1999.90;;;999.90;;
12577;SDS011;6354;51.026;8.968;2023-04-19T12:21:10;1999.90;;;999.90;;
12577;SDS011;6354;51.026;8.968;2023-04-19T12:23:40;1999.90;;;999.90;;
12577;SDS011;6354;51.026;8.968;2023-04-19T12:26:08;1999.90;;;982.73;;
12577;SDS011;6354;51.026;8.968;2023-04-19T12:28:36;1999.90;;;999.90;;
12577;SDS011;6354;51.026;8.968;2023-04-19T12:31:04;1999.90;;;999.90;;
12577;SDS011;6354;51.026;8.968;2023-04-19T12:33:32;1999.90;;;999.90;;
12577;SDS011;6354;51.026;8.968;2023-04-19T12:36:00;1999.90;;;999.90;;
12577;SDS011;6354;51.026;8.968;2023-04-19T12:38:28;1999.90;;;999.90;;
12577;SDS011;6354;51.026;8.968;2023-04-19T12:40:58;1999.90;;;999.90;;
12577;SDS011;6354;51.026;8.968;2023-04-19T12:43:26;1999.90;;;999.90;;
12577;SDS011;6354;51.026;8.968;2023-04-19T12:45:55;1999.90;;;999.90;;
12577;SDS011;6354;51.026;8.968;2023-04-19T12:48:23;1999.90;;;999.90;;
12577;SDS011;6354;51.026;8.968;2023-04-19T12:50:51;1999.90;;;999.90;;
12577;SDS011;6354;51.026;8.968;2023-04-19T12:53:20;1999.90;;;999.90;;
12577;SDS011;6354;51.026;8.968;2023-04-19T12:55:49;1999.90;;;999.90;;
12577;SDS011;6354;51.026;8.968;2023-04-19T12:58:18;1999.90;;;999.90;;
12577;SDS011;6354;51.026;8.968;2023-04-19T13:00:47;1999.90;;;999.90;;
12577;SDS011;6354;51.026;8.968;2023-04-19T13:03:15;1999.90;;;999.90;;
12577;SDS011;6354;51.026;8.968;2023-04-19T13:05:44;1999.90;;;999.90;;
12577;SDS011;6354;51.026;8.968;2023-04-19T13:08:12;1999.90;;;999.90;;
12577;SDS011;6354;51.026;8.968;2023-04-19T13:10:40;1999.90;;;999.90;;
12577;SDS011;6354;51.026;8.968;2023-04-19T13:13:07;1999.90;;;999.90;;
12577;SDS011;6354;51.026;8.968;2023-04-19T13:15:37;1999.90;;;999.90;;
12577;SDS011;6354;51.026;8.968;2023-04-19T13:18:07;1999.90;;;999.90;;
12577;SDS011;6354;51.026;8.968;2023-04-19T13:20:35;1999.90;;;999.90;;
12577;SDS011;6354;51.026;8.968;2023-04-19T13:23:03;1999.90;;;999.90;;
12577;SDS011;6354;51.026;8.968;2023-04-19T13:25:31;1999.90;;;999.90;;
12577;SDS011;6354;51.026;8.968;2023-04-19T13:27:59;1999.90;;;999.90;;
12577;SDS011;6354;51.026;8.968;2023-04-19T13:30:27;1999.90;;;999.90;;
12577;SDS011;6354;51.026;8.968;2023-04-19T13:32:56;1999.90;;;999.90;;
12577;SDS011;6354;51.026;8.968;2023-04-19T13:35:26;1999.90;;;999.90;;
12577;SDS011;6354;51.026;8.968;2023-04-19T13:37:54;1999.90;;;999.90;;
12577;SDS011;6354;51.026;8.968;2023-04-19T13:40:22;1999.90;;;999.90;;
12577;SDS011;6354;51.026;8.968;2023-04-19T13:42:50;1999.90;;;999.90;;
12577;SDS011;6354;51.026;8.968;2023-04-19T13:45:19;1999.90;;;999.90;;
12577;SDS011;6354;51.026;8.968;2023-04-19T13:47:47;1999.90;;;999.90;;
12577;SDS011;6354;51.026;8.968;2023-04-19T13:50:17;1999.90;;;999.90;;
12577;SDS011;6354;51.026;8.968;2023-04-19T13:52:45;1999.90;;;999.90;;
12577;SDS011;6354;51.026;8.968;2023-04-19T13:55:12;1999.90;;;999.90;;
12577;SDS011;6354;51.026;8.968;2023-04-19T13:57:40;1999.90;;;999.90;;
12577;SDS011;6354;51.026;8.968;2023-04-19T14:00:09;1999.90;;;999.90;;
12577;SDS011;6354;51.026;8.968;2023-04-19T14:02:37;1999.90;;;999.90;;
12577;SDS011;6354;51.026;8.968;2023-04-19T14:05:06;1999.90;;;999.90;;
12577;SDS011;6354;51.026;8.968;2023-04-19T14:07:36;1999.90;;;999.90;;
12577;SDS011;6354;51.026;8.968;2023-04-19T14:10:05;1999.90;;;999.90;;
12577;SDS011;6354;51.026;8.968;2023-04-19T14:12:35;1999.90;;;999.90;;
12577;SDS011;6354;51.026;8.968;2023-04-19T14:15:03;1999.90;;;999.90;;
12577;SDS011;6354;51.026;8.968;2023-04-19T14:17:31;1999.90;;;999.90;;
12577;SDS011;6354;51.026;8.968;2023-04-19T14:20:01;1999.90;;;999.90;;